sensor_id;sensor_type;location;lat;lon;timestamp;P1;durP1;ratioP1;P2;durP2;ratioP2
80273;SDS011;69576;51.902;-8.462;2023-11-19T00:00:06;10.60;;;2.75;;
80273;SDS011;69576;51.902;-8.462;2023-11-19T00:02:37;19.90;;;3.50;;
80273;SDS011;69576;51.902;-8.462;2023-11-19T00:05:03;16.73;;;4.78;;
80273;SDS011;69576;51.902;-8.462;2023-11-19T00:07:34;20.83;;;3.35;;
80273;SDS011;69576;51.902;-8.462;2023-11-19T00:10:06;20.15;;;3.47;;
80273;SDS011;69576;51.902;-8.462;2023-11-19T00:15:03;15.48;;;2.60;;
80273;SDS011;69576;51.902;-8.462;2023-11-19T00:17:29;19.33;;;3.30;;
80273;SDS011;69576;51.902;-8.462;2023-11-19T00:19:55;13.23;;;3.05;;
80273;SDS011;69576;51.902;-8.462;2023-11-19T00:22:23;19.05;;;3.08;;
80273;SDS011;69576;51.902;-8.462;2023-11-19T00:24:51;12.02;;;2.38;;
80273;SDS011;69576;51.902;-8.462;2023-11-19T00:27:16;4.35;;;2.08;;
80273;SDS011;69576;51.902;-8.462;2023-11-19T00:29:44;9.13;;;2.33;;
80273;SDS011;69576;51.902;-8.462;2023-11-19T00:32:11;5.93;;;2.78;;
80273;SDS011;69576;51.902;-8.462;2023-11-19T00:34:37;11.88;;;2.72;;
80273;SDS011;69576;51.902;-8.462;2023-11-19T00:37:02;9.32;;;3.33;;
80273;SDS011;69576;51.902;-8.462;2023-11-19T00:39:31;11.45;;;2.90;;
80273;SDS011;69576;51.902;-8.462;2023-11-19T00:41:57;7.97;;;2.38;;
80273;SDS011;69576;51.902;-8.462;2023-11-19T00:44:26;18.98;;;3.50;;
80273;SDS011;69576;51.902;-8.462;2023-11-19T00:46:51;19.42;;;5.35;;
80273;SDS011;69576;51.902;-8.462;2023-11-19T00:49:19;6.68;;;2.70;;
80273;SDS011;69576;51.902;-8.462;2023-11-19T00:51:45;16.83;;;3.70;;
80273;SDS011;69576;51.902;-8.462;2023-11-19T00:54:16;7.43;;;2.13;;
80273;SDS011;69576;51.902;-8.462;2023-11-19T00:56:44;12.50;;;3.63;;
80273;SDS011;69576;51.902;-8.462;2023-11-19T00:59:10;7.70;;;2.40;;
80273;SDS011;69576;51.902;-8.462;2023-11-19T01:01:36;17.10;;;2.45;;
80273;SDS011;69576;51.902;-8.462;2023-11-19T01:04:02;10.90;;;2.47;;
80273;SDS011;69576;51.902;-8.462;2023-11-19T01:06:30;15.18;;;4.35;;
80273;SDS011;69576;51.902;-8.462;2023-11-19T01:08:57;12.30;;;2.67;;
80273;SDS011;69576;51.902;-8.462;2023-11-19T01:11:25;13.80;;;2.38;;
80273;SDS011;69576;51.902;-8.462;2023-11-19T01:13:51;12.13;;;2.40;;
80273;SDS011;69576;51.902;-8.462;2023-11-19T01:16:18;12.98;;;2.60;;
80273;SDS011;69576;51.902;-8.462;2023-11-19T01:18:44;9.93;;;2.60;;
80273;SDS011;69576;51.902;-8.462;2023-11-19T01:21:13;19.38;;;4.32;;
80273;SDS011;69576;51.902;-8.462;2023-11-19T01:23:42;11.43;;;2.92;;
80273;SDS011;69576;51.902;-8.462;2023-11-19T01:26:14;5.32;;;2.20;;
80273;SDS011;69576;51.902;-8.462;2023-11-19T01:31:08;15.85;;;3.40;;
80273;SDS011;69576;51.902;-8.462;2023-11-19T01:33:36;18.67;;;2.92;;
80273;SDS011;69576;51.902;-8.462;2023-11-19T01:36:02;16.40;;;3.25;;
80273;SDS011;69576;51.902;-8.462;2023-11-19T01:38:29;17.05;;;4.22;;
80273;SDS011;69576;51.902;-8.462;2023-11-19T01:40:56;9.35;;;2.03;;
80273;SDS011;69576;51.902;-8.462;2023-11-19T01:43:31;10.82;;;1.80;;
80273;SDS011;69576;51.902;-8.462;2023-11-19T01:46:01;10.75;;;2.53;;
80273;SDS011;69576;51.902;-8.462;2023-11-19T01:48:31;10.77;;;2.75;;
80273;SDS011;69576;51.902;-8.462;2023-11-19T01:51:03;14.40;;;3.83;;
80273;SDS011;69576;51.902;-8.462;2023-11-19T01:53:30;7.43;;;2.42;;
80273;SDS011;69576;51.902;-8.462;2023-11-19T01:56:00;16.02;;;4.05;;
80273;SDS011;69576;51.902;-8.462;2023-11-19T01:58:26;10.23;;;2.55;;
80273;SDS011;69576;51.902;-8.462;2023-11-19T02:00:55;5.53;;;1.98;;
80273;SDS011;69576;51.902;-8.462;2023-11-19T02:03:24;7.32;;;2.47;;
80273;SDS011;69576;51.902;-8.462;2023-11-19T02:05:54;10.57;;;2.50;;
80273;SDS011;69576;51.902;-8.462;2023-11-19T02:08:22;12.48;;;3.00;;
80273;SDS011;69576;51.902;-8.462;2023-11-19T02:10:48;10.27;;;2.33;;
80273;SDS011;69576;51.902;-8.462;2023-11-19T02:13:14;7.15;;;2.63;;
80273;SDS011;69576;51.902;-8.462;2023-11-19T02:15:44;7.95;;;2.75;;
80273;SDS011;69576;51.902;-8.462;2023-11-19T02:18:18;11.70;;;3.20;;
80273;SDS011;69576;51.902;-8.462;2023-11-19T02:20:45;19.63;;;3.17;;
80273;SDS011;69576;51.902;-8.462;2023-11-19T02:23:13;9.73;;;2.50;;
80273;SDS011;69576;51.902;-8.462;2023-11-19T02:25:39;12.68;;;3.35;;
80273;SDS011;69576;51.902;-8.462;2023-11-19T02:28:05;14.35;;;2.47;;
80273;SDS011;69576;51.902;-8.462;2023-11-19T02:30:34;14.30;;;3.22;;
80273;SDS011;69576;51.902;-8.462;2023-11-19T02:33:00;8.52;;;2.65;;
80273;SDS011;69576;51.902;-8.462;2023-11-19T02:35:32;10.00;;;2.70;;
80273;SDS011;69576;51.902;-8.462;2023-11-19T02:38:01;14.77;;;2.05;;
80273;SDS011;69576;51.902;-8.462;2023-11-19T02:40:29;9.77;;;2.22;;
80273;SDS011;69576;51.902;-8.462;2023-11-19T02:42:54;9.80;;;2.58;;
80273;SDS011;69576;51.902;-8.462;2023-11-19T02:45:24;17.20;;;2.58;;
80273;SDS011;69576;51.902;-8.462;2023-11-19T02:47:53;8.15;;;2.38;;
80273;SDS011;69576;51.902;-8.462;2023-11-19T02:50:20;9.43;;;2.92;;
80273;SDS011;69576;51.902;-8.462;2023-11-19T02:52:56;11.95;;;3.53;;
80273;SDS011;69576;51.902;-8.462;2023-11-19T02:55:27;9.80;;;1.85;;
80273;SDS011;69576;51.902;-8.462;2023-11-19T02:58:01;10.63;;;2.47;;
80273;SDS011;69576;51.902;-8.462;2023-11-19T03:00:44;15.77;;;2.78;;
80273;SDS011;69576;51.902;-8.462;2023-11-19T03:03:19;9.75;;;2.53;;
80273;SDS011;69576;51.902;-8.462;2023-11-19T03:05:47;13.98;;;3.72;;
80273;SDS011;69576;51.902;-8.462;2023-11-19T03:08:14;8.57;;;2.53;;
80273;SDS011;69576;51.902;-8.462;2023-11-19T03:10:42;10.13;;;2.70;;
80273;SDS011;69576;51.902;-8.462;2023-11-19T03:13:11;13.50;;;2.63;;
80273;SDS011;69576;51.902;-8.462;2023-11-19T03:15:41;12.55;;;2.28;;
80273;SDS011;69576;51.902;-8.462;2023-11-19T03:18:08;7.82;;;1.75;;
80273;SDS011;69576;51.902;-8.462;2023-11-19T03:20:34;9.02;;;2.42;;
80273;SDS011;69576;51.902;-8.462;2023-11-19T03:23:02;11.30;;;2.83;;
80273;SDS011;69576;51.902;-8.462;2023-11-19T03:25:30;19.95;;;4.78;;
80273;SDS011;69576;51.902;-8.462;2023-11-19T03:28:02;11.43;;;2.65;;
80273;SDS011;69576;51.902;-8.462;2023-11-19T03:30:29;10.57;;;2.45;;
80273;SDS011;69576;51.902;-8.462;2023-11-19T03:32:56;6.38;;;2.05;;
80273;SDS011;69576;51.902;-8.462;2023-11-19T03:35:25;10.57;;;2.33;;
80273;SDS011;69576;51.902;-8.462;2023-11-19T03:37:51;12.93;;;2.10;;
80273;SDS011;69576;51.902;-8.462;2023-11-19T03:40:21;16.73;;;3.08;;
80273;SDS011;69576;51.902;-8.462;2023-11-19T03:42:46;11.43;;;2.53;;
80273;SDS011;69576;51.902;-8.462;2023-11-19T03:45:17;10.82;;;2.05;;
80273;SDS011;69576;51.902;-8.462;2023-11-19T03:47:48;9.10;;;2.08;;
80273;SDS011;69576;51.902;-8.462;2023-11-19T03:52:48;9.90;;;2.83;;
80273;SDS011;69576;51.902;-8.462;2023-11-19T03:55:14;14.38;;;2.38;;
80273;SDS011;69576;51.902;-8.462;2023-11-19T03:57:40;7.28;;;1.80;;
80273;SDS011;69576;51.902;-8.462;2023-11-19T04:00:06;5.53;;;2.03;;
80273;SDS011;69576;51.902;-8.462;2023-11-19T04:05:03;12.75;;;2.30;;
80273;SDS011;69576;51.902;-8.462;2023-11-19T04:07:30;13.57;;;2.88;;
80273;SDS011;69576;51.902;-8.462;2023-11-19T04:10:00;10.35;;;2.92;;
80273;SDS011;69576;51.902;-8.462;2023-11-19T04:12:26;6.82;;;2.17;;
80273;SDS011;69576;51.902;-8.462;2023-11-19T04:14:59;12.65;;;2.55;;
80273;SDS011;69576;51.902;-8.462;2023-11-19T04:17:27;5.32;;;2.00;;
80273;SDS011;69576;51.902;-8.462;2023-11-19T04:19:53;6.45;;;3.35;;
80273;SDS011;69576;51.902;-8.462;2023-11-19T04:22:24;8.80;;;2.08;;
80273;SDS011;69576;51.902;-8.462;2023-11-19T04:24:51;10.95;;;2.28;;
80273;SDS011;69576;51.902;-8.462;2023-11-19T04:27:18;14.05;;;2.83;;
80273;SDS011;69576;51.902;-8.462;2023-11-19T04:29:43;4.20;;;2.15;;
80273;SDS011;69576;51.902;-8.462;2023-11-19T04:32:10;10.98;;;2.17;;
80273;SDS011;69576;51.902;-8.462;2023-11-19T04:34:36;7.25;;;2.17;;
80273;SDS011;69576;51.902;-8.462;2023-11-19T04:37:04;6.03;;;2.15;;
80273;SDS011;69576;51.902;-8.462;2023-11-19T04:39:30;9.98;;;2.50;;
80273;SDS011;69576;51.902;-8.462;2023-11-19T04:41:58;13.60;;;3.28;;
80273;SDS011;69576;51.902;-8.462;2023-11-19T04:44:24;10.82;;;2.47;;
80273;SDS011;69576;51.902;-8.462;2023-11-19T04:46:54;8.63;;;2.15;;
80273;SDS011;69576;51.902;-8.462;2023-11-19T04:49:23;8.15;;;2.22;;
80273;SDS011;69576;51.902;-8.462;2023-11-19T04:51:52;7.63;;;1.98;;
80273;SDS011;69576;51.902;-8.462;2023-11-19T04:54:18;10.30;;;2.55;;
80273;SDS011;69576;51.902;-8.462;2023-11-19T04:56:47;6.75;;;2.30;;
80273;SDS011;69576;51.902;-8.462;2023-11-19T04:59:13;10.77;;;1.83;;
80273;SDS011;69576;51.902;-8.462;2023-11-19T05:01:39;7.60;;;1.83;;
80273;SDS011;69576;51.902;-8.462;2023-11-19T05:04:06;6.90;;;2.65;;
80273;SDS011;69576;51.902;-8.462;2023-11-19T05:06:33;5.18;;;1.95;;
80273;SDS011;69576;51.902;-8.462;2023-11-19T05:09:00;4.10;;;1.50;;
80273;SDS011;69576;51.902;-8.462;2023-11-19T05:11:28;3.67;;;1.75;;
80273;SDS011;69576;51.902;-8.462;2023-11-19T05:13:59;3.85;;;1.15;;
80273;SDS011;69576;51.902;-8.462;2023-11-19T05:16:27;2.50;;;0.95;;
80273;SDS011;69576;51.902;-8.462;2023-11-19T05:18:55;5.90;;;1.55;;
80273;SDS011;69576;51.902;-8.462;2023-11-19T05:21:21;3.17;;;1.33;;
80273;SDS011;69576;51.902;-8.462;2023-11-19T05:23:49;3.63;;;1.35;;
80273;SDS011;69576;51.902;-8.462;2023-11-19T05:26:23;2.42;;;1.10;;
80273;SDS011;69576;51.902;-8.462;2023-11-19T05:28:51;5.47;;;0.77;;
80273;SDS011;69576;51.902;-8.462;2023-11-19T05:31:18;3.67;;;1.40;;
80273;SDS011;69576;51.902;-8.462;2023-11-19T05:33:43;3.35;;;0.90;;
80273;SDS011;69576;51.902;-8.462;2023-11-19T05:36:10;8.45;;;1.38;;
80273;SDS011;69576;51.902;-8.462;2023-11-19T05:38:37;4.70;;;1.10;;
80273;SDS011;69576;51.902;-8.462;2023-11-19T05:41:06;3.85;;;1.20;;
80273;SDS011;69576;51.902;-8.462;2023-11-19T05:43:34;3.28;;;1.10;;
80273;SDS011;69576;51.902;-8.462;2023-11-19T05:46:00;4.15;;;1.52;;
80273;SDS011;69576;51.902;-8.462;2023-11-19T05:48:28;2.75;;;1.40;;
80273;SDS011;69576;51.902;-8.462;2023-11-19T05:50:59;2.47;;;1.20;;
80273;SDS011;69576;51.902;-8.462;2023-11-19T05:53:25;4.85;;;2.15;;
80273;SDS011;69576;51.902;-8.462;2023-11-19T05:55:53;5.47;;;2.28;;
80273;SDS011;69576;51.902;-8.462;2023-11-19T05:58:25;4.40;;;1.17;;
80273;SDS011;69576;51.902;-8.462;2023-11-19T06:00:54;3.72;;;1.10;;
80273;SDS011;69576;51.902;-8.462;2023-11-19T06:03:23;2.85;;;1.23;;
80273;SDS011;69576;51.902;-8.462;2023-11-19T06:05:51;5.03;;;1.02;;
80273;SDS011;69576;51.902;-8.462;2023-11-19T06:08:19;5.75;;;1.10;;
80273;SDS011;69576;51.902;-8.462;2023-11-19T06:10:48;5.47;;;1.10;;
80273;SDS011;69576;51.902;-8.462;2023-11-19T06:13:16;4.18;;;1.33;;
80273;SDS011;69576;51.902;-8.462;2023-11-19T06:15:44;1.55;;;1.13;;
80273;SDS011;69576;51.902;-8.462;2023-11-19T06:18:12;4.43;;;1.33;;
80273;SDS011;69576;51.902;-8.462;2023-11-19T06:20:39;2.28;;;1.15;;
80273;SDS011;69576;51.902;-8.462;2023-11-19T06:23:08;1.77;;;1.40;;
80273;SDS011;69576;51.902;-8.462;2023-11-19T06:25:34;6.22;;;1.70;;
80273;SDS011;69576;51.902;-8.462;2023-11-19T06:28:05;3.22;;;1.27;;
80273;SDS011;69576;51.902;-8.462;2023-11-19T06:30:32;4.63;;;1.23;;
80273;SDS011;69576;51.902;-8.462;2023-11-19T06:33:00;5.47;;;1.40;;
80273;SDS011;69576;51.902;-8.462;2023-11-19T06:35:31;2.25;;;1.15;;
80273;SDS011;69576;51.902;-8.462;2023-11-19T06:38:01;3.42;;;1.05;;
80273;SDS011;69576;51.902;-8.462;2023-11-19T06:40:29;2.85;;;1.13;;
80273;SDS011;69576;51.902;-8.462;2023-11-19T06:42:55;1.50;;;0.98;;
80273;SDS011;69576;51.902;-8.462;2023-11-19T06:45:21;7.57;;;2.08;;
80273;SDS011;69576;51.902;-8.462;2023-11-19T06:47:50;1.30;;;0.73;;
80273;SDS011;69576;51.902;-8.462;2023-11-19T06:50:16;2.10;;;1.00;;
80273;SDS011;69576;51.902;-8.462;2023-11-19T06:52:42;0.75;;;0.57;;
80273;SDS011;69576;51.902;-8.462;2023-11-19T06:55:08;1.83;;;1.13;;
80273;SDS011;69576;51.902;-8.462;2023-11-19T06:57:36;4.10;;;1.05;;
80273;SDS011;69576;51.902;-8.462;2023-11-19T07:00:05;5.53;;;1.27;;
80273;SDS011;69576;51.902;-8.462;2023-11-19T07:02:36;4.20;;;1.20;;
80273;SDS011;69576;51.902;-8.462;2023-11-19T07:05:04;0.75;;;0.73;;
80273;SDS011;69576;51.902;-8.462;2023-11-19T07:07:31;1.88;;;1.00;;
80273;SDS011;69576;51.902;-8.462;2023-11-19T07:10:00;1.27;;;1.00;;
80273;SDS011;69576;51.902;-8.462;2023-11-19T07:12:27;2.03;;;0.95;;
80273;SDS011;69576;51.902;-8.462;2023-11-19T07:14:55;2.45;;;1.30;;
80273;SDS011;69576;51.902;-8.462;2023-11-19T07:17:21;0.82;;;0.60;;
80273;SDS011;69576;51.902;-8.462;2023-11-19T07:19:49;2.70;;;1.17;;
80273;SDS011;69576;51.902;-8.462;2023-11-19T07:22:21;3.05;;;1.27;;
80273;SDS011;69576;51.902;-8.462;2023-11-19T07:24:48;3.17;;;1.17;;
80273;SDS011;69576;51.902;-8.462;2023-11-19T07:27:13;1.33;;;1.10;;
80273;SDS011;69576;51.902;-8.462;2023-11-19T07:29:43;1.65;;;0.65;;
80273;SDS011;69576;51.902;-8.462;2023-11-19T07:32:09;0.73;;;0.73;;
80273;SDS011;69576;51.902;-8.462;2023-11-19T07:37:04;1.23;;;0.68;;
80273;SDS011;69576;51.902;-8.462;2023-11-19T07:39:30;1.08;;;0.98;;
80273;SDS011;69576;51.902;-8.462;2023-11-19T07:41:56;1.67;;;0.75;;
80273;SDS011;69576;51.902;-8.462;2023-11-19T07:44:22;1.85;;;0.65;;
80273;SDS011;69576;51.902;-8.462;2023-11-19T07:46:48;0.73;;;0.73;;
80273;SDS011;69576;51.902;-8.462;2023-11-19T07:49:16;1.70;;;0.50;;
80273;SDS011;69576;51.902;-8.462;2023-11-19T07:51:46;3.35;;;1.10;;
80273;SDS011;69576;51.902;-8.462;2023-11-19T07:54:14;2.75;;;0.52;;
80273;SDS011;69576;51.902;-8.462;2023-11-19T07:56:42;3.03;;;1.10;;
80273;SDS011;69576;51.902;-8.462;2023-11-19T07:59:10;3.25;;;1.15;;
80273;SDS011;69576;51.902;-8.462;2023-11-19T08:01:38;2.65;;;1.40;;
80273;SDS011;69576;51.902;-8.462;2023-11-19T08:04:03;1.95;;;1.17;;
80273;SDS011;69576;51.902;-8.462;2023-11-19T08:06:29;3.55;;;1.70;;
80273;SDS011;69576;51.902;-8.462;2023-11-19T08:08:58;2.13;;;1.00;;
80273;SDS011;69576;51.902;-8.462;2023-11-19T08:11:24;2.97;;;0.90;;
80273;SDS011;69576;51.902;-8.462;2023-11-19T08:13:55;1.40;;;1.05;;
80273;SDS011;69576;51.902;-8.462;2023-11-19T08:16:23;4.80;;;1.45;;
80273;SDS011;69576;51.902;-8.462;2023-11-19T08:18:51;0.98;;;0.47;;
80273;SDS011;69576;51.902;-8.462;2023-11-19T08:21:17;1.55;;;1.20;;
80273;SDS011;69576;51.902;-8.462;2023-11-19T08:23:43;3.63;;;1.15;;
80273;SDS011;69576;51.902;-8.462;2023-11-19T08:26:09;4.35;;;1.27;;
80273;SDS011;69576;51.902;-8.462;2023-11-19T08:28:34;1.40;;;1.05;;
80273;SDS011;69576;51.902;-8.462;2023-11-19T08:31:00;3.67;;;1.45;;
80273;SDS011;69576;51.902;-8.462;2023-11-19T08:33:29;0.98;;;0.77;;
80273;SDS011;69576;51.902;-8.462;2023-11-19T08:35:54;4.63;;;1.33;;
80273;SDS011;69576;51.902;-8.462;2023-11-19T08:38:23;4.82;;;1.35;;
80273;SDS011;69576;51.902;-8.462;2023-11-19T08:40:50;2.30;;;1.08;;
80273;SDS011;69576;51.902;-8.462;2023-11-19T08:43:18;5.97;;;1.63;;
80273;SDS011;69576;51.902;-8.462;2023-11-19T08:45:43;1.40;;;1.00;;
80273;SDS011;69576;51.902;-8.462;2023-11-19T08:48:11;2.55;;;2.35;;
80273;SDS011;69576;51.902;-8.462;2023-11-19T08:50:37;2.72;;;1.27;;
80273;SDS011;69576;51.902;-8.462;2023-11-19T08:53:03;1.02;;;0.90;;
80273;SDS011;69576;51.902;-8.462;2023-11-19T08:55:31;1.42;;;1.05;;
80273;SDS011;69576;51.902;-8.462;2023-11-19T08:57:57;3.30;;;1.05;;
80273;SDS011;69576;51.902;-8.462;2023-11-19T09:00:25;0.68;;;0.68;;
80273;SDS011;69576;51.902;-8.462;2023-11-19T09:02:50;1.95;;;0.95;;
80273;SDS011;69576;51.902;-8.462;2023-11-19T09:05:16;2.65;;;1.05;;
80273;SDS011;69576;51.902;-8.462;2023-11-19T09:07:42;3.50;;;1.00;;
80273;SDS011;69576;51.902;-8.462;2023-11-19T09:10:08;3.60;;;1.55;;
80273;SDS011;69576;51.902;-8.462;2023-11-19T09:12:34;2.28;;;0.95;;
80273;SDS011;69576;51.902;-8.462;2023-11-19T09:15:00;3.47;;;1.33;;
80273;SDS011;69576;51.902;-8.462;2023-11-19T09:17:26;3.67;;;1.05;;
80273;SDS011;69576;51.902;-8.462;2023-11-19T09:19:54;4.63;;;1.48;;
80273;SDS011;69576;51.902;-8.462;2023-11-19T09:22:19;1.58;;;0.70;;
80273;SDS011;69576;51.902;-8.462;2023-11-19T09:24:45;2.33;;;1.17;;
80273;SDS011;69576;51.902;-8.462;2023-11-19T09:27:13;2.97;;;1.33;;
80273;SDS011;69576;51.902;-8.462;2023-11-19T09:29:39;2.70;;;0.88;;
80273;SDS011;69576;51.902;-8.462;2023-11-19T09:32:05;2.88;;;1.30;;
80273;SDS011;69576;51.902;-8.462;2023-11-19T09:34:31;4.95;;;1.50;;
80273;SDS011;69576;51.902;-8.462;2023-11-19T09:36:57;3.38;;;1.30;;
80273;SDS011;69576;51.902;-8.462;2023-11-19T09:39:31;2.42;;;0.90;;
80273;SDS011;69576;51.902;-8.462;2023-11-19T09:41:59;3.33;;;1.08;;
80273;SDS011;69576;51.902;-8.462;2023-11-19T09:44:25;4.50;;;1.00;;
80273;SDS011;69576;51.902;-8.462;2023-11-19T09:46:52;1.17;;;0.93;;
80273;SDS011;69576;51.902;-8.462;2023-11-19T09:49:21;3.55;;;1.15;;
80273;SDS011;69576;51.902;-8.462;2023-11-19T09:51:51;3.35;;;1.45;;
80273;SDS011;69576;51.902;-8.462;2023-11-19T09:54:19;3.97;;;1.40;;
80273;SDS011;69576;51.902;-8.462;2023-11-19T09:56:45;3.97;;;1.48;;
80273;SDS011;69576;51.902;-8.462;2023-11-19T10:01:42;7.65;;;1.40;;
80273;SDS011;69576;51.902;-8.462;2023-11-19T10:04:10;4.03;;;1.38;;
80273;SDS011;69576;51.902;-8.462;2023-11-19T10:06:41;2.67;;;1.13;;
80273;SDS011;69576;51.902;-8.462;2023-11-19T10:09:07;4.25;;;1.10;;
80273;SDS011;69576;51.902;-8.462;2023-11-19T10:11:33;5.93;;;1.42;;
80273;SDS011;69576;51.902;-8.462;2023-11-19T10:13:59;3.67;;;1.42;;
80273;SDS011;69576;51.902;-8.462;2023-11-19T10:16:28;6.32;;;1.27;;
80273;SDS011;69576;51.902;-8.462;2023-11-19T10:18:56;6.10;;;1.55;;
80273;SDS011;69576;51.902;-8.462;2023-11-19T10:21:21;3.00;;;1.13;;
80273;SDS011;69576;51.902;-8.462;2023-11-19T10:23:55;3.58;;;1.35;;
80273;SDS011;69576;51.902;-8.462;2023-11-19T10:26:30;1.85;;;0.90;;
80273;SDS011;69576;51.902;-8.462;2023-11-19T10:28:56;3.58;;;1.15;;
80273;SDS011;69576;51.902;-8.462;2023-11-19T10:31:22;4.18;;;1.40;;
80273;SDS011;69576;51.902;-8.462;2023-11-19T10:33:51;3.72;;;0.93;;
80273;SDS011;69576;51.902;-8.462;2023-11-19T10:38:52;1.98;;;1.77;;
80273;SDS011;69576;51.902;-8.462;2023-11-19T10:41:31;4.55;;;1.23;;
80273;SDS011;69576;51.902;-8.462;2023-11-19T10:44:02;2.28;;;1.70;;
80273;SDS011;69576;51.902;-8.462;2023-11-19T10:46:40;5.50;;;1.45;;
80273;SDS011;69576;51.902;-8.462;2023-11-19T10:49:08;3.05;;;0.88;;
80273;SDS011;69576;51.902;-8.462;2023-11-19T10:51:34;3.15;;;1.42;;
80273;SDS011;69576;51.902;-8.462;2023-11-19T10:54:03;5.22;;;1.50;;
80273;SDS011;69576;51.902;-8.462;2023-11-19T10:56:31;6.57;;;1.80;;
80273;SDS011;69576;51.902;-8.462;2023-11-19T10:59:00;2.70;;;1.15;;
80273;SDS011;69576;51.902;-8.462;2023-11-19T11:01:31;2.75;;;1.17;;
80273;SDS011;69576;51.902;-8.462;2023-11-19T11:04:11;6.05;;;1.42;;
80273;SDS011;69576;51.902;-8.462;2023-11-19T11:06:42;3.95;;;1.42;;
80273;SDS011;69576;51.902;-8.462;2023-11-19T11:09:08;1.98;;;1.20;;
80273;SDS011;69576;51.902;-8.462;2023-11-19T11:11:39;7.53;;;2.13;;
80273;SDS011;69576;51.902;-8.462;2023-11-19T11:14:10;3.67;;;1.60;;
80273;SDS011;69576;51.902;-8.462;2023-11-19T11:16:41;2.20;;;1.35;;
80273;SDS011;69576;51.902;-8.462;2023-11-19T11:19:10;3.83;;;1.42;;
80273;SDS011;69576;51.902;-8.462;2023-11-19T11:21:43;6.55;;;1.13;;
80273;SDS011;69576;51.902;-8.462;2023-11-19T11:27:35;3.38;;;1.38;;
80273;SDS011;69576;51.902;-8.462;2023-11-19T11:37:45;3.00;;;1.67;;
80273;SDS011;69576;51.902;-8.462;2023-11-19T11:40:15;6.68;;;1.77;;
80273;SDS011;69576;51.902;-8.462;2023-11-19T11:42:44;2.72;;;1.15;;
80273;SDS011;69576;51.902;-8.462;2023-11-19T11:45:10;7.63;;;1.95;;
80273;SDS011;69576;51.902;-8.462;2023-11-19T11:50:12;1.85;;;1.63;;
80273;SDS011;69576;51.902;-8.462;2023-11-19T11:55:26;1.63;;;1.02;;
80273;SDS011;69576;51.902;-8.462;2023-11-19T11:58:03;5.68;;;2.15;;
80273;SDS011;69576;51.902;-8.462;2023-11-19T12:00:40;3.40;;;1.85;;
80273;SDS011;69576;51.902;-8.462;2023-11-19T12:03:10;2.65;;;1.88;;
80273;SDS011;69576;51.902;-8.462;2023-11-19T12:05:43;3.28;;;1.58;;
80273;SDS011;69576;51.902;-8.462;2023-11-19T12:08:11;9.70;;;1.88;;
80273;SDS011;69576;51.902;-8.462;2023-11-19T12:10:47;4.80;;;2.15;;
80273;SDS011;69576;51.902;-8.462;2023-11-19T12:13:15;2.15;;;1.50;;
80273;SDS011;69576;51.902;-8.462;2023-11-19T12:18:28;4.85;;;1.52;;
80273;SDS011;69576;51.902;-8.462;2023-11-19T12:20:58;5.05;;;1.90;;
80273;SDS011;69576;51.902;-8.462;2023-11-19T12:23:30;3.30;;;1.83;;
80273;SDS011;69576;51.902;-8.462;2023-11-19T12:28:25;4.20;;;1.08;;
80273;SDS011;69576;51.902;-8.462;2023-11-19T12:30:54;2.72;;;0.90;;
80273;SDS011;69576;51.902;-8.462;2023-11-19T12:33:36;6.78;;;1.88;;
80273;SDS011;69576;51.902;-8.462;2023-11-19T12:36:03;3.70;;;1.42;;
80273;SDS011;69576;51.902;-8.462;2023-11-19T12:38:30;4.47;;;1.83;;
80273;SDS011;69576;51.902;-8.462;2023-11-19T12:41:05;5.75;;;1.70;;
80273;SDS011;69576;51.902;-8.462;2023-11-19T12:43:32;6.15;;;1.50;;
80273;SDS011;69576;51.902;-8.462;2023-11-19T12:46:11;3.58;;;1.23;;
80273;SDS011;69576;51.902;-8.462;2023-11-19T12:48:49;4.43;;;1.73;;
80273;SDS011;69576;51.902;-8.462;2023-11-19T12:51:18;3.00;;;1.50;;
80273;SDS011;69576;51.902;-8.462;2023-11-19T12:53:48;3.38;;;1.40;;
80273;SDS011;69576;51.902;-8.462;2023-11-19T12:56:15;5.22;;;2.00;;
80273;SDS011;69576;51.902;-8.462;2023-11-19T12:58:41;3.67;;;1.40;;
80273;SDS011;69576;51.902;-8.462;2023-11-19T13:01:10;4.38;;;1.30;;
80273;SDS011;69576;51.902;-8.462;2023-11-19T13:03:44;6.70;;;1.75;;
80273;SDS011;69576;51.902;-8.462;2023-11-19T13:06:11;5.72;;;1.70;;
80273;SDS011;69576;51.902;-8.462;2023-11-19T13:11:09;5.80;;;1.98;;
80273;SDS011;69576;51.902;-8.462;2023-11-19T13:13:57;1.52;;;0.80;;
80273;SDS011;69576;51.902;-8.462;2023-11-19T13:16:26;6.30;;;1.88;;
80273;SDS011;69576;51.902;-8.462;2023-11-19T13:18:52;4.45;;;1.45;;
80273;SDS011;69576;51.902;-8.462;2023-11-19T13:21:22;2.97;;;1.20;;
80273;SDS011;69576;51.902;-8.462;2023-11-19T13:23:51;7.07;;;1.60;;
80273;SDS011;69576;51.902;-8.462;2023-11-19T13:26:17;6.18;;;1.60;;
80273;SDS011;69576;51.902;-8.462;2023-11-19T13:28:42;2.67;;;1.30;;
80273;SDS011;69576;51.902;-8.462;2023-11-19T13:31:08;7.18;;;1.48;;
80273;SDS011;69576;51.902;-8.462;2023-11-19T13:33:39;4.47;;;1.33;;
80273;SDS011;69576;51.902;-8.462;2023-11-19T13:36:08;5.30;;;1.88;;
80273;SDS011;69576;51.902;-8.462;2023-11-19T13:38:36;1.27;;;1.13;;
80273;SDS011;69576;51.902;-8.462;2023-11-19T13:41:02;4.55;;;1.48;;
80273;SDS011;69576;51.902;-8.462;2023-11-19T13:43:31;8.15;;;1.95;;
80273;SDS011;69576;51.902;-8.462;2023-11-19T13:45:57;6.13;;;1.65;;
80273;SDS011;69576;51.902;-8.462;2023-11-19T13:48:23;6.47;;;1.77;;
80273;SDS011;69576;51.902;-8.462;2023-11-19T13:50:49;2.92;;;1.48;;
80273;SDS011;69576;51.902;-8.462;2023-11-19T13:53:15;6.32;;;1.90;;
80273;SDS011;69576;51.902;-8.462;2023-11-19T13:55:42;4.22;;;1.80;;
80273;SDS011;69576;51.902;-8.462;2023-11-19T13:58:08;4.47;;;1.75;;
80273;SDS011;69576;51.902;-8.462;2023-11-19T14:00:34;5.05;;;1.88;;
80273;SDS011;69576;51.902;-8.462;2023-11-19T14:03:00;9.43;;;2.13;;
80273;SDS011;69576;51.902;-8.462;2023-11-19T14:05:26;6.93;;;2.15;;
80273;SDS011;69576;51.902;-8.462;2023-11-19T14:07:51;3.63;;;1.60;;
80273;SDS011;69576;51.902;-8.462;2023-11-19T14:10:18;6.22;;;2.72;;
80273;SDS011;69576;51.902;-8.462;2023-11-19T14:12:44;6.97;;;1.95;;
80273;SDS011;69576;51.902;-8.462;2023-11-19T14:15:12;4.68;;;2.08;;
80273;SDS011;69576;51.902;-8.462;2023-11-19T14:17:39;9.50;;;1.80;;
80273;SDS011;69576;51.902;-8.462;2023-11-19T14:20:05;6.03;;;1.58;;
80273;SDS011;69576;51.902;-8.462;2023-11-19T14:22:38;6.53;;;2.20;;
80273;SDS011;69576;51.902;-8.462;2023-11-19T14:25:10;6.15;;;2.00;;
80273;SDS011;69576;51.902;-8.462;2023-11-19T14:27:40;8.48;;;1.60;;
80273;SDS011;69576;51.902;-8.462;2023-11-19T14:30:10;10.10;;;2.08;;
80273;SDS011;69576;51.902;-8.462;2023-11-19T14:32:38;6.93;;;2.10;;
80273;SDS011;69576;51.902;-8.462;2023-11-19T14:35:05;5.10;;;2.03;;
80273;SDS011;69576;51.902;-8.462;2023-11-19T14:39:59;5.25;;;1.48;;
80273;SDS011;69576;51.902;-8.462;2023-11-19T14:42:26;11.20;;;2.55;;
80273;SDS011;69576;51.902;-8.462;2023-11-19T14:44:52;6.95;;;1.63;;
80273;SDS011;69576;51.902;-8.462;2023-11-19T14:47:21;14.27;;;2.72;;
80273;SDS011;69576;51.902;-8.462;2023-11-19T14:49:49;8.18;;;2.72;;
80273;SDS011;69576;51.902;-8.462;2023-11-19T14:52:20;8.07;;;2.47;;
80273;SDS011;69576;51.902;-8.462;2023-11-19T14:54:46;8.63;;;2.20;;
80273;SDS011;69576;51.902;-8.462;2023-11-19T14:57:14;3.55;;;1.27;;
80273;SDS011;69576;51.902;-8.462;2023-11-19T14:59:40;8.98;;;2.83;;
80273;SDS011;69576;51.902;-8.462;2023-11-19T15:02:06;12.27;;;2.83;;
80273;SDS011;69576;51.902;-8.462;2023-11-19T15:04:31;4.25;;;2.10;;
80273;SDS011;69576;51.902;-8.462;2023-11-19T15:07:00;7.25;;;2.17;;
80273;SDS011;69576;51.902;-8.462;2023-11-19T15:09:26;6.82;;;2.47;;
80273;SDS011;69576;51.902;-8.462;2023-11-19T15:11:54;8.55;;;1.45;;
80273;SDS011;69576;51.902;-8.462;2023-11-19T15:14:20;8.95;;;2.20;;
80273;SDS011;69576;51.902;-8.462;2023-11-19T15:16:46;8.18;;;2.30;;
80273;SDS011;69576;51.902;-8.462;2023-11-19T15:19:19;11.95;;;2.67;;